Time;durP1;ratioP1;P1;durP2;ratioP2;P2;SDS_P1;SDS_P2;PMS_P1;PMS_P2;Temp;Humidity;BMP_temperature;BMP_pressure;BME280_temperature;BME280_humidity;BME280_pressure;Samples;Min_cycle;Max_cycle;Signal;HPM_P1;HPM_P2
2021/07/21 00:02:15;;;;;;;1.50;1.00;;;16.50;96.20;;;;;;4994569;28;20835;-81
2021/07/21 00:04:43;;;;;;;1.50;1.00;;;16.40;97.00;;;;;;4994182;28;20469;-81
2021/07/21 00:07:12;;;;;;;1.50;1.00;;;16.40;97.50;;;;;;4992165;28;20915;-79
2021/07/21 00:09:39;;;;;;;1.60;1.00;;;16.40;96.90;;;;;;4999421;28;20461;-80
2021/07/21 00:14:51;;;;;;;1.50;1.00;;;16.30;97.20;;;;;;4998496;28;20527;-80
2021/07/21 00:17:20;;;;;;;1.57;1.00;;;16.30;97.00;;;;;;4996648;28;20484;-81
2021/07/21 00:20:07;;;;;;;1.50;1.00;;;16.30;97.60;;;;;;4993461;28;20796;-79
2021/07/21 00:22:35;;;;;;;1.50;0.90;;;16.30;97.50;;;;;;4984006;28;20484;-82
2021/07/21 00:25:02;;;;;;;1.53;1.00;;;16.30;97.50;;;;;;4998067;28;20465;-79
2021/07/21 00:27:29;;;;;;;1.50;1.00;;;16.20;97.70;;;;;;4985688;28;20554;-81
2021/07/21 00:29:56;;;;;;;1.50;0.90;;;16.20;98.20;;;;;;4995878;28;20460;-81
2021/07/21 00:32:23;;;;;;;1.50;0.90;;;16.20;98.20;;;;;;4986971;28;20484;-81
2021/07/21 00:34:51;;;;;;;1.50;1.00;;;16.20;98.20;;;;;;4996429;28;20909;-82
2021/07/21 00:37:17;;;;;;;1.50;1.00;;;16.10;98.20;;;;;;4997094;28;20494;-80
2021/07/21 00:39:44;;;;;;;1.50;1.00;;;16.10;98.20;;;;;;4999392;28;20468;-81
2021/07/21 00:42:11;;;;;;;1.50;0.90;;;16.10;98.00;;;;;;4983147;28;20473;-82
2021/07/21 00:44:38;;;;;;;1.50;0.93;;;16.10;98.20;;;;;;4994853;28;20471;-81
2021/07/21 00:47:05;;;;;;;1.53;1.00;;;16.10;98.20;;;;;;4988905;28;20480;-80
2021/07/21 00:49:32;;;;;;;1.57;1.00;;;16.00;98.20;;;;;;4999330;28;20461;-81
2021/07/21 00:52:03;;;;;;;1.50;1.00;;;16.00;98.20;;;;;;4986570;28;20476;-80
2021/07/21 00:54:32;;;;;;;1.50;1.00;;;16.00;98.20;;;;;;4994308;28;20460;-81
2021/07/21 00:57:00;;;;;;;1.50;1.00;;;15.90;98.20;;;;;;4993163;28;20729;-82
2021/07/21 00:59:28;;;;;;;1.50;1.00;;;15.90;98.20;;;;;;4999783;28;20908;-79
2021/07/21 01:01:55;;;;;;;1.50;1.00;;;15.90;98.20;;;;;;4990065;28;20485;-80
2021/07/21 01:04:22;;;;;;;1.50;1.00;;;15.80;98.20;;;;;;5000456;28;20472;-81
2021/07/21 01:06:50;;;;;;;1.50;0.90;;;15.80;98.20;;;;;;4984375;28;20485;-81
2021/07/21 01:09:21;;;;;;;1.50;1.00;;;15.80;98.20;;;;;;4994030;28;21114;-81
2021/07/21 01:12:07;;;;;;;1.60;1.00;;;15.80;98.20;;;;;;4990886;28;20872;-80
2021/07/21 01:14:42;;;;;;;1.57;1.00;;;15.70;98.20;;;;;;4994560;28;20994;-78
2021/07/21 01:17:16;;;;;;;1.50;1.00;;;15.70;98.20;;;;;;4989229;28;20484;-81
2021/07/21 01:20:13;;;;;;;1.53;1.00;;;15.70;98.20;;;;;;5000149;28;20465;-81
2021/07/21 01:22:42;;;;;;;1.50;1.00;;;15.70;98.20;;;;;;4987030;28;21048;-81
2021/07/21 01:25:15;;;;;;;1.50;0.90;;;15.70;98.20;;;;;;4994293;28;20461;-80
2021/07/21 01:27:47;;;;;;;1.57;1.00;;;15.70;98.20;;;;;;4982392;28;20492;-79
2021/07/21 01:30:16;;;;;;;1.53;1.00;;;15.60;98.20;;;;;;4992364;28;20469;-79
2021/07/21 01:32:47;;;;;;;1.50;1.00;;;15.70;98.20;;;;;;5000696;28;20487;-80
2021/07/21 01:35:18;;;;;;;1.53;1.00;;;15.60;98.20;;;;;;4992194;28;20982;-79
2021/07/21 01:37:54;;;;;;;1.53;1.00;;;15.60;98.20;;;;;;4989548;28;20472;-80
2021/07/21 01:40:25;;;;;;;1.57;1.00;;;15.60;98.20;;;;;;4992164;28;20963;-81
2021/07/21 01:42:59;;;;;;;1.57;1.00;;;15.60;98.20;;;;;;4998351;28;20483;-81
2021/07/21 01:45:29;;;;;;;1.60;1.10;;;15.60;98.20;;;;;;4992508;28;21157;-80
2021/07/21 01:47:59;;;;;;;1.60;1.00;;;15.60;98.20;;;;;;4999173;28;20479;-82
2021/07/21 01:50:27;;;;;;;1.50;0.97;;;15.60;98.20;;;;;;4992514;28;20472;-79
2021/07/21 01:52:55;;;;;;;1.53;1.00;;;15.60;98.20;;;;;;4999598;28;20483;-81
2021/07/21 01:55:23;;;;;;;1.50;1.00;;;15.60;98.20;;;;;;4992472;28;20469;-82
2021/07/21 01:57:51;;;;;;;1.50;1.00;;;15.70;98.20;;;;;;4998763;28;20499;-81
2021/07/21 02:00:20;;;;;;;1.50;0.90;;;15.70;98.20;;;;;;4993848;28;20552;-81
2021/07/21 02:02:50;;;;;;;1.57;1.00;;;15.60;98.20;;;;;;4995747;28;20480;-81
2021/07/21 02:05:20;;;;;;;1.50;1.00;;;15.60;98.20;;;;;;4992713;28;20465;-81
2021/07/21 02:07:48;;;;;;;1.57;1.00;;;15.60;98.20;;;;;;4994135;28;20476;-81
2021/07/21 02:10:18;;;;;;;1.50;0.90;;;15.60;98.20;;;;;;4994233;28;20476;-82
2021/07/21 02:12:46;;;;;;;1.50;1.00;;;15.60;98.20;;;;;;4999673;28;20518;-78
2021/07/21 02:15:14;;;;;;;1.57;1.00;;;15.60;98.20;;;;;;4992611;28;20484;-79
2021/07/21 02:17:42;;;;;;;1.50;1.00;;;15.60;98.20;;;;;;4993140;28;20492;-82
2021/07/21 02:20:11;;;;;;;1.50;0.93;;;15.60;98.20;;;;;;4994766;28;20469;-80
2021/07/21 02:22:40;;;;;;;1.60;1.10;;;15.60;98.20;;;;;;4996307;28;20480;-79
2021/07/21 02:25:10;;;;;;;1.53;1.00;;;15.60;98.20;;;;;;4993547;28;20976;-81
2021/07/21 02:27:37;;;;;;;1.50;1.00;;;15.60;98.20;;;;;;5002762;28;20879;-81
2021/07/21 02:30:07;;;;;;;1.57;1.00;;;15.60;98.20;;;;;;4994948;28;20556;-81
2021/07/21 02:32:37;;;;;;;1.53;1.00;;;15.60;98.20;;;;;;4991891;28;21204;-82
2021/07/21 02:35:08;;;;;;;1.50;1.00;;;15.60;98.20;;;;;;4991706;28;20472;-81
2021/07/21 02:37:34;;;;;;;1.50;1.00;;;15.50;98.20;;;;;;4993545;28;20464;-81
2021/07/21 02:40:01;;;;;;;1.50;1.00;;;15.50;98.20;;;;;;4995844;28;20556;-82
2021/07/21 02:42:28;;;;;;;1.50;1.00;;;15.50;98.20;;;;;;4993292;28;20476;-81
2021/07/21 02:44:55;;;;;;;1.53;1.00;;;15.50;98.20;;;;;;4996438;28;21002;-81
2021/07/21 02:47:23;;;;;;;1.50;0.90;;;15.50;98.20;;;;;;4992147;28;20491;-81
2021/07/21 02:49:51;;;;;;;1.50;1.00;;;15.40;98.20;;;;;;4994757;28;20465;-81
2021/07/21 02:52:23;;;;;;;1.50;0.93;;;15.40;98.20;;;;;;4994578;28;20492;-81
2021/07/21 02:55:01;;;;;;;1.50;0.90;;;15.40;98.20;;;;;;4994840;28;20476;-81
2021/07/21 02:57:35;;;;;;;1.57;1.00;;;15.30;98.20;;;;;;4997659;28;20480;-78
2021/07/21 03:00:07;;;;;;;1.50;0.90;;;15.30;98.20;;;;;;4997508;28;20464;-81
2021/07/21 03:02:36;;;;;;;1.50;1.00;;;15.30;98.20;;;;;;4996250;28;20485;-81
2021/07/21 03:05:07;;;;;;;1.50;1.00;;;15.30;98.20;;;;;;4994225;28;20493;-81
2021/07/21 03:07:38;;;;;;;2.03;1.47;;;15.20;98.20;;;;;;4996894;28;20484;-83
2021/07/21 03:10:07;;;;;;;1.50;1.00;;;15.20;98.20;;;;;;4995048;28;20474;-82
2021/07/21 03:12:38;;;;;;;1.50;1.00;;;15.20;98.20;;;;;;4981231;28;20560;-81
2021/07/21 03:15:06;;;;;;;1.53;1.00;;;15.20;98.20;;;;;;4988483;28;20504;-81
2021/07/21 03:17:36;;;;;;;1.60;1.10;;;15.10;98.20;;;;;;4992574;28;20481;-82
2021/07/21 03:20:04;;;;;;;1.50;1.00;;;15.10;98.20;;;;;;4992894;28;20544;-80
2021/07/21 03:22:32;;;;;;;1.50;1.00;;;15.10;98.20;;;;;;4994718;28;20490;-81
2021/07/21 03:25:03;;;;;;;1.50;0.97;;;15.10;98.20;;;;;;4993229;28;20488;-81
2021/07/21 03:27:31;;;;;;;1.57;1.10;;;15.10;98.20;;;;;;4990687;28;20488;-81
2021/07/21 03:29:59;;;;;;;1.50;1.00;;;15.00;98.20;;;;;;4990483;28;20489;-80
2021/07/21 03:32:28;;;;;;;1.53;1.00;;;15.00;98.20;;;;;;4990838;28;20487;-78
2021/07/21 03:34:56;;;;;;;1.50;1.10;;;15.00;98.20;;;;;;4994036;28;20822;-80
2021/07/21 03:37:25;;;;;;;1.50;1.00;;;15.00;98.20;;;;;;4994987;28;20983;-82
2021/07/21 03:39:55;;;;;;;1.53;1.00;;;15.00;98.20;;;;;;4993872;28;20543;-80
2021/07/21 03:42:25;;;;;;;1.50;1.00;;;14.90;98.20;;;;;;4989781;28;20484;-82
2021/07/21 03:44:53;;;;;;;1.50;1.00;;;14.90;98.20;;;;;;4989965;28;20552;-80
2021/07/21 03:47:21;;;;;;;1.53;1.10;;;14.90;98.20;;;;;;4996215;28;20546;-81
2021/07/21 03:49:49;;;;;;;1.50;1.00;;;14.80;98.20;;;;;;4996427;28;20524;-80
2021/07/21 03:52:16;;;;;;;1.50;1.00;;;14.80;98.20;;;;;;4994605;28;21010;-80
2021/07/21 03:54:44;;;;;;;1.57;1.00;;;14.80;98.20;;;;;;4995309;28;20488;-78
2021/07/21 03:57:12;;;;;;;1.50;1.00;;;14.80;98.20;;;;;;4986742;28;20477;-79
2021/07/21 03:59:41;;;;;;;1.60;1.20;;;14.80;98.20;;;;;;4998045;28;20523;-80
2021/07/21 04:02:09;;;;;;;1.50;1.00;;;14.70;98.20;;;;;;4995945;28;20476;-78
2021/07/21 04:04:41;;;;;;;1.50;1.00;;;14.70;98.20;;;;;;4999565;28;20838;-79
2021/07/21 04:07:09;;;;;;;1.77;1.10;;;14.70;98.20;;;;;;4985005;28;20922;-81
2021/07/21 04:09:36;;;;;;;1.50;1.00;;;14.70;98.20;;;;;;4995562;28;20470;-79
2021/07/21 04:12:06;;;;;;;1.50;1.03;;;14.70;98.20;;;;;;4994519;28;20476;-81
2021/07/21 04:14:34;;;;;;;1.50;1.00;;;14.70;98.20;;;;;;5000884;28;20524;-81
2021/07/21 04:17:05;;;;;;;1.50;1.00;;;14.70;98.20;;;;;;4996562;28;20551;-79
2021/07/21 04:19:33;;;;;;;1.60;1.10;;;14.70;98.20;;;;;;4999954;28;21051;-81
2021/07/21 04:22:04;;;;;;;1.50;0.90;;;14.70;98.20;;;;;;4984716;28;21058;-79
2021/07/21 04:24:32;;;;;;;1.50;1.00;;;14.80;98.20;;;;;;4991681;28;20956;-79
2021/07/21 04:27:03;;;;;;;1.50;1.00;;;14.80;98.20;;;;;;4998886;28;21039;-80
2021/07/21 04:29:34;;;;;;;1.50;1.00;;;14.80;98.20;;;;;;5002449;28;20465;-77
2021/07/21 04:32:05;;;;;;;1.50;0.90;;;14.80;98.20;;;;;;4999133;28;20471;-79
2021/07/21 04:34:33;;;;;;;1.50;1.00;;;14.80;98.20;;;;;;5003423;28;20515;-78
2021/07/21 04:37:00;;;;;;;1.50;1.00;;;14.90;98.20;;;;;;4995573;28;21032;-78
2021/07/21 04:39:28;;;;;;;1.50;0.90;;;14.90;98.20;;;;;;5001240;28;20473;-81
2021/07/21 04:41:56;;;;;;;1.50;1.00;;;15.00;98.20;;;;;;4992172;28;20482;-79
2021/07/21 04:44:24;;;;;;;1.50;1.00;;;15.00;98.20;;;;;;4998853;28;20461;-79
2021/07/21 04:46:56;;;;;;;1.50;1.00;;;15.00;98.20;;;;;;4993006;28;20476;-77
2021/07/21 04:49:25;;;;;;;1.50;1.00;;;15.10;98.20;;;;;;5000940;28;20781;-80
2021/07/21 04:51:56;;;;;;;1.50;1.00;;;15.10;98.20;;;;;;4995124;28;20476;-79
2021/07/21 04:54:23;;;;;;;1.53;1.10;;;15.20;98.20;;;;;;5000775;28;20956;-80
2021/07/21 04:56:52;;;;;;;1.60;1.10;;;15.30;98.20;;;;;;4983918;28;20571;-78
2021/07/21 04:59:19;;;;;;;1.50;0.90;;;15.40;98.20;;;;;;4996707;28;20460;-78
2021/07/21 05:01:48;;;;;;;1.53;1.00;;;15.50;98.20;;;;;;4992338;28;20479;-81
2021/07/21 05:04:15;;;;;;;1.57;0.90;;;15.60;98.20;;;;;;5002586;28;20990;-80
2021/07/21 05:06:43;;;;;;;1.50;0.97;;;15.70;98.20;;;;;;4992070;28;21009;-81
2021/07/21 05:09:17;;;;;;;1.50;1.10;;;15.90;98.20;;;;;;5002173;28;20457;-78
2021/07/21 05:11:47;;;;;;;1.50;1.00;;;16.10;98.20;;;;;;4995256;28;20476;-77
2021/07/21 05:14:14;;;;;;;1.50;0.90;;;16.30;98.20;;;;;;5004999;28;20461;-79
2021/07/21 05:16:44;;;;;;;1.50;1.00;;;16.50;98.20;;;;;;4996043;28;20571;-82
2021/07/21 05:19:11;;;;;;;1.60;1.10;;;16.70;98.20;;;;;;5005571;28;20502;-81
2021/07/21 05:21:38;;;;;;;1.53;0.90;;;16.90;98.20;;;;;;4995406;28;20472;-81
2021/07/21 05:24:07;;;;;;;1.50;1.00;;;17.10;98.20;;;;;;5005807;28;20472;-79
2021/07/21 05:26:33;;;;;;;1.50;1.00;;;17.30;97.00;;;;;;4992717;28;20777;-78
2021/07/21 05:29:02;;;;;;;1.50;0.90;;;17.60;96.30;;;;;;5008192;28;20457;-77
2021/07/21 05:31:31;;;;;;;1.53;1.00;;;17.70;94.10;;;;;;4984775;28;20488;-79
2021/07/21 05:34:01;;;;;;;1.50;1.00;;;17.90;94.70;;;;;;5007540;28;20468;-81
2021/07/21 05:36:35;;;;;;;1.53;0.97;;;18.10;94.70;;;;;;4984212;28;20517;-78
2021/07/21 05:39:03;;;;;;;1.60;1.20;;;18.40;94.30;;;;;;4997051;28;20467;-80
2021/07/21 05:41:31;;;;;;;1.50;1.00;;;18.50;93.90;;;;;;4987058;28;20481;-78
2021/07/21 05:44:07;;;;;;;1.53;0.97;;;18.70;92.50;;;;;;4996919;28;20458;-81
2021/07/21 05:46:37;;;;;;;1.50;0.90;;;19.00;91.20;;;;;;4994596;28;20479;-78
2021/07/21 05:49:04;;;;;;;1.50;0.90;;;19.10;90.10;;;;;;5004789;28;20528;-78
2021/07/21 05:51:30;;;;;;;1.70;1.10;;;19.20;88.80;;;;;;4993712;28;20495;-80
2021/07/21 05:53:58;;;;;;;1.50;0.93;;;19.20;89.20;;;;;;5006830;28;21093;-79
2021/07/21 05:56:26;;;;;;;1.57;1.00;;;19.20;88.80;;;;;;4993113;28;20496;-79
2021/07/21 05:58:56;;;;;;;1.50;1.00;;;19.40;89.50;;;;;;5009028;28;20539;-81
2021/07/21 06:01:26;;;;;;;1.50;0.90;;;19.60;88.70;;;;;;4992416;28;20523;-78
2021/07/21 06:03:58;;;;;;;1.57;0.90;;;19.80;88.60;;;;;;5001996;28;21153;-81
2021/07/21 06:06:28;;;;;;;1.50;1.00;;;20.00;86.90;;;;;;4990820;28;20483;-80
2021/07/21 06:08:55;;;;;;;1.50;0.90;;;20.20;87.30;;;;;;5008395;28;20457;-79
2021/07/21 06:11:22;;;;;;;1.53;0.90;;;20.40;86.00;;;;;;4987501;28;20468;-79
2021/07/21 06:13:49;;;;;;;1.53;1.00;;;20.60;85.20;;;;;;4999952;28;20461;-77
2021/07/21 06:16:21;;;;;;;1.53;0.90;;;20.80;84.00;;;;;;4988570;28;20841;-79
2021/07/21 06:18:55;;;;;;;1.57;1.00;;;20.90;85.40;;;;;;5008662;28;20563;-79
2021/07/21 06:21:25;;;;;;;1.50;1.00;;;21.20;84.50;;;;;;4990156;28;20532;-78
2021/07/21 06:23:58;;;;;;;1.50;0.90;;;21.30;82.50;;;;;;4998569;28;20472;-80
2021/07/21 06:26:27;;;;;;;1.60;1.10;;;21.50;82.80;;;;;;4991364;28;20472;-78
2021/07/21 06:28:54;;;;;;;1.50;0.90;;;21.80;82.00;;;;;;5016085;28;20453;-79
2021/07/21 06:31:22;;;;;;;1.50;0.90;;;21.90;81.00;;;;;;4993126;28;20473;-81
2021/07/21 06:36:31;;;;;;;1.57;0.90;;;22.30;79.20;;;;;;4989255;28;20490;-78
2021/07/21 06:39:00;;;;;;;1.80;1.20;;;22.30;78.30;;;;;;5004554;28;21125;-79
2021/07/21 06:41:28;;;;;;;1.50;0.90;;;22.20;78.70;;;;;;4985897;28;20487;-80
2021/07/21 06:44:00;;;;;;;1.57;0.93;;;22.20;79.70;;;;;;5003703;28;20469;-77
2021/07/21 06:46:34;;;;;;;1.50;0.90;;;22.40;79.30;;;;;;4981739;28;20494;-77
2021/07/21 06:52:11;;;;;;;1.50;0.90;;;22.90;79.10;;;;;;4960898;28;20992;-78
2021/07/21 06:55:16;;;;;;;1.50;0.90;;;23.20;78.50;;;;;;4995977;28;20973;-78
2021/07/21 06:57:58;;;;;;;1.50;0.90;;;23.50;78.30;;;;;;4986419;28;20483;-77
2021/07/21 07:00:25;;;;;;;1.50;0.90;;;23.70;77.20;;;;;;4991371;28;20475;-79
2021/07/21 07:02:56;;;;;;;1.50;0.90;;;23.80;75.50;;;;;;4995927;28;20615;-77
2021/07/21 07:05:39;;;;;;;1.50;0.90;;;24.00;76.30;;;;;;4989543;28;20481;-79
2021/07/21 07:08:06;;;;;;;1.50;0.90;;;24.10;74.50;;;;;;4982806;28;20587;-78
2021/07/21 07:10:33;;;;;;;1.57;0.90;;;24.10;73.20;;;;;;4987150;28;20472;-77
2021/07/21 07:13:08;;;;;;;1.50;0.90;;;24.20;74.20;;;;;;4976862;28;20488;-77
2021/07/21 07:15:35;;;;;;;1.50;0.90;;;24.30;74.20;;;;;;4990191;28;20495;-80
2021/07/21 07:18:05;;;;;;;1.50;0.90;;;24.30;74.10;;;;;;4974823;28;20572;-78
2021/07/21 07:23:32;;;;;;;1.50;0.90;;;24.40;72.90;;;;;;4952833;28;20485;-79
2021/07/21 07:26:02;;;;;;;1.50;0.90;;;24.50;72.80;;;;;;4980443;28;20493;-78
2021/07/21 07:28:32;;;;;;;1.50;0.87;;;24.50;73.80;;;;;;4998473;28;20468;-78
2021/07/21 07:31:15;;;;;;;1.50;0.90;;;24.60;73.70;;;;;;4977778;28;21121;-78
2021/07/21 07:33:44;;;;;;;1.50;0.90;;;24.70;73.90;;;;;;4991690;28;20465;-79
2021/07/21 07:36:13;;;;;;;1.50;0.90;;;24.80;73.40;;;;;;4980701;28;20488;-79
2021/07/21 07:38:55;;;;;;;1.50;0.90;;;24.90;73.30;;;;;;5000671;28;20524;-78
2021/07/21 07:41:22;;;;;;;1.50;0.90;;;24.90;74.20;;;;;;4981807;28;21023;-81
2021/07/21 07:43:49;;;;;;;1.50;1.00;;;25.00;73.70;;;;;;4997867;28;20466;-80
2021/07/21 07:49:18;;;;;;;1.50;0.90;;;25.20;72.50;;;;;;5000392;28;21076;-83
2021/07/21 07:51:49;;;;;;;1.50;0.90;;;25.40;70.60;;;;;;4987445;28;21049;-81
2021/07/21 07:54:22;;;;;;;1.50;0.90;;;25.50;70.00;;;;;;5002144;28;20468;-83
2021/07/21 07:56:49;;;;;;;1.50;0.90;;;25.50;70.10;;;;;;4994935;28;21101;-79
2021/07/21 07:59:16;;;;;;;1.50;0.90;;;25.60;71.10;;;;;;4995751;28;20491;-79
2021/07/21 08:02:10;;;;;;;1.50;0.90;;;25.60;71.00;;;;;;4993451;28;20484;-83
2021/07/21 08:04:53;;;;;;;1.50;0.80;;;25.70;70.60;;;;;;5002878;28;20945;-83
2021/07/21 08:07:25;;;;;;;1.50;0.90;;;25.70;69.90;;;;;;4988824;28;20484;-85
2021/07/21 08:09:58;;;;;;;1.50;0.80;;;25.80;71.10;;;;;;5000173;28;20533;-83
2021/07/21 08:12:28;;;;;;;1.50;0.90;;;25.90;70.20;;;;;;4996532;28;20502;-81
2021/07/21 08:14:57;;;;;;;1.50;0.80;;;26.10;70.80;;;;;;4994095;28;20550;-82
2021/07/21 08:17:36;;;;;;;1.50;0.83;;;26.30;69.20;;;;;;4991845;28;20667;-84
2021/07/21 08:20:10;;;;;;;1.50;0.80;;;26.30;69.10;;;;;;4993240;28;20930;-82
2021/07/21 08:22:40;;;;;;;1.50;0.80;;;26.10;68.70;;;;;;4990593;28;20476;-76
2021/07/21 08:25:09;;;;;;;1.50;0.87;;;26.10;69.20;;;;;;4985777;28;20496;-80
2021/07/21 08:27:41;;;;;;;1.50;0.90;;;26.10;67.30;;;;;;4979644;28;20492;-79
2021/07/21 08:30:13;;;;;;;1.50;0.90;;;26.00;68.20;;;;;;4992315;28;21005;-84
2021/07/21 08:32:41;;;;;;;1.70;1.27;;;26.00;66.90;;;;;;4998391;28;20488;-79
2021/07/21 08:35:16;;;;;;;1.50;0.90;;;26.10;66.90;;;;;;4992538;28;20484;-84
2021/07/21 08:37:44;;;;;;;1.50;0.80;;;26.20;67.30;;;;;;4993427;28;21010;-80
2021/07/21 08:40:15;;;;;;;1.50;0.90;;;26.30;67.10;;;;;;4989192;28;20477;-83
2021/07/21 08:42:42;;;;;;;1.50;0.80;;;26.50;68.20;;;;;;4992213;28;20476;-83
2021/07/21 08:45:11;;;;;;;1.50;0.80;;;26.80;67.60;;;;;;4996447;28;20515;-81
2021/07/21 08:47:41;;;;;;;1.50;0.90;;;27.00;67.70;;;;;;5001176;28;20993;-85
2021/07/21 08:50:15;;;;;;;1.50;0.80;;;27.00;66.70;;;;;;4997321;28;20772;-84
2021/07/21 08:52:44;;;;;;;1.50;0.90;;;26.70;66.90;;;;;;5001183;28;20918;-79
2021/07/21 08:55:14;;;;;;;1.50;0.80;;;26.70;67.00;;;;;;4996391;28;20456;-82
2021/07/21 08:57:41;;;;;;;1.50;0.80;;;26.80;67.30;;;;;;4997949;28;20483;-82
2021/07/21 09:00:14;;;;;;;1.50;0.80;;;26.90;67.00;;;;;;4986001;28;20461;-81
2021/07/21 09:02:43;;;;;;;1.50;0.80;;;27.10;65.20;;;;;;4994862;28;20887;-81
2021/07/21 09:05:14;;;;;;;1.50;0.80;;;27.00;65.50;;;;;;4993693;28;20572;-80
2021/07/21 09:07:42;;;;;;;1.50;0.80;;;26.90;65.30;;;;;;5001317;28;20688;-81
2021/07/21 09:10:13;;;;;;;1.50;0.80;;;26.90;65.60;;;;;;4995143;28;20978;-81
2021/07/21 09:12:40;;;;;;;1.50;0.87;;;27.00;65.90;;;;;;4996374;28;20485;-85
2021/07/21 09:15:12;;;;;;;1.47;0.80;;;27.10;66.60;;;;;;4999478;28;21067;-83
2021/07/21 09:18:04;;;;;;;1.50;0.90;;;27.30;66.30;;;;;;4999103;28;20487;-78
2021/07/21 09:20:33;;;;;;;1.47;0.80;;;27.50;64.30;;;;;;4994718;28;20994;-81
2021/07/21 09:23:00;;;;;;;1.50;0.90;;;27.70;64.00;;;;;;4997854;28;20499;-83
2021/07/21 09:25:31;;;;;;;1.50;0.80;;;27.80;66.60;;;;;;4994930;28;20464;-82
2021/07/21 09:28:03;;;;;;;1.50;0.80;;;28.00;65.50;;;;;;4998894;28;20507;-81
2021/07/21 09:30:35;;;;;;;1.50;0.80;;;27.90;64.10;;;;;;5003198;28;21019;-84
2021/07/21 09:33:04;;;;;;;1.50;0.80;;;27.80;65.40;;;;;;5002905;28;20487;-85
2021/07/21 09:35:34;;;;;;;1.50;0.80;;;27.90;65.00;;;;;;4998637;28;20465;-78
2021/07/21 09:38:05;;;;;;;1.50;0.80;;;27.80;64.60;;;;;;4993371;28;20471;-78
2021/07/21 09:40:36;;;;;;;1.43;0.80;;;27.70;65.80;;;;;;4994271;28;20456;-81
2021/07/21 09:43:03;;;;;;;1.50;0.80;;;27.80;65.10;;;;;;4996443;28;20590;-79
2021/07/21 09:45:41;;;;;;;1.47;0.80;;;27.80;66.70;;;;;;4990440;28;20855;-81
2021/07/21 09:48:15;;;;;;;1.50;0.90;;;27.90;65.50;;;;;;4996005;28;20500;-85
2021/07/21 09:50:50;;;;;;;1.50;0.83;;;28.10;64.20;;;;;;4992507;28;20519;-83
2021/07/21 09:53:17;;;;;;;1.50;0.80;;;28.20;65.00;;;;;;4980893;28;20499;-79
2021/07/21 09:55:50;;;;;;;1.50;0.80;;;28.20;63.90;;;;;;4991383;28;20507;-82
2021/07/21 09:58:23;;;;;;;1.43;0.80;;;28.30;64.80;;;;;;4980570;28;20480;-82
2021/07/21 10:01:04;;;;;;;1.50;0.80;;;28.40;63.30;;;;;;4982731;28;20464;-84
2021/07/21 10:03:34;;;;;;;1.50;0.80;;;28.60;64.60;;;;;;5005532;28;20474;-80
2021/07/21 10:06:05;;;;;;;1.50;0.80;;;28.50;63.60;;;;;;4979288;28;20554;-79
2021/07/21 10:08:39;;;;;;;1.47;0.80;;;28.60;66.50;;;;;;5000178;28;20487;-80
2021/07/21 10:11:24;;;;;;;1.50;0.80;;;28.60;62.90;;;;;;4981664;28;20480;-80
2021/07/21 10:13:52;;;;;;;1.50;0.80;;;28.80;62.40;;;;;;5000699;28;20475;-82
2021/07/21 10:16:33;;;;;;;1.43;0.80;;;28.90;63.60;;;;;;4984451;28;20483;-76
2021/07/21 10:19:08;;;;;;;1.50;0.80;;;28.90;63.00;;;;;;4999030;28;20492;-79
2021/07/21 10:21:42;;;;;;;1.50;0.80;;;28.90;62.90;;;;;;4982564;28;20486;-81
2021/07/21 10:24:13;;;;;;;1.50;0.80;;;28.90;63.10;;;;;;4997166;28;21128;-81
2021/07/21 10:26:41;;;;;;;1.50;0.80;;;28.50;62.90;;;;;;4976984;28;20488;-81
2021/07/21 10:29:08;;;;;;;1.47;0.83;;;28.10;63.60;;;;;;4988032;28;20468;-81
2021/07/21 10:31:36;;;;;;;1.50;0.80;;;28.20;65.00;;;;;;4984343;28;20479;-82
2021/07/21 10:34:03;;;;;;;1.40;0.80;;;28.50;64.20;;;;;;4998949;28;20464;-81
2021/07/21 10:36:32;;;;;;;1.47;0.80;;;28.70;63.00;;;;;;4988456;28;20479;-80
2021/07/21 10:39:02;;;;;;;1.50;0.80;;;28.90;62.60;;;;;;4997104;28;20516;-80
2021/07/21 10:41:30;;;;;;;1.43;0.80;;;28.90;63.30;;;;;;4979377;28;20487;-81
2021/07/21 10:43:59;;;;;;;1.47;0.80;;;28.60;64.00;;;;;;4989255;28;20464;-79
2021/07/21 10:46:33;;;;;;;1.70;1.03;;;28.50;64.90;;;;;;4974177;28;21008;-83
2021/07/21 10:49:19;;;;;;;1.47;0.80;;;28.10;64.70;;;;;;4992287;28;20472;-82
2021/07/21 10:52:19;;;;;;;1.50;0.80;;;27.90;65.10;;;;;;4979887;28;20487;-79
2021/07/21 10:54:53;;;;;;;1.50;0.80;;;28.00;64.40;;;;;;4990895;28;20460;-80
2021/07/21 11:00:11;;;;;;;1.47;0.90;;;28.50;64.30;;;;;;4988459;28;20523;-83
2021/07/21 11:02:38;;;;;;;1.50;0.80;;;28.50;64.10;;;;;;4987648;28;20485;-79
2021/07/21 11:05:08;;;;;;;1.50;0.90;;;28.60;63.60;;;;;;4988720;28;20468;-78
2021/07/21 11:07:51;;;;;;;1.50;1.00;;;28.80;64.10;;;;;;4986965;28;20483;-79
2021/07/21 11:10:33;;;;;;;1.47;0.90;;;28.70;65.60;;;;;;4989326;28;20464;-78
2021/07/21 11:13:00;;;;;;;1.47;0.80;;;28.50;64.60;;;;;;4990366;28;20483;-82
2021/07/21 11:15:42;;;;;;;1.50;0.90;;;28.20;63.70;;;;;;4989323;28;20475;-77
2021/07/21 11:18:44;;;;;;;2.07;1.67;;;28.00;66.20;;;;;;4990404;28;20484;-78
2021/07/21 11:21:14;;;;;;;1.47;0.80;;;27.80;66.00;;;;;;4975791;28;20487;-79
2021/07/21 11:23:43;;;;;;;1.50;0.90;;;27.60;65.70;;;;;;4986491;28;20461;-77
2021/07/21 11:26:39;;;;;;;1.50;0.90;;;27.50;65.20;;;;;;5005720;23;20486;-79
2021/07/21 11:29:40;;;;;;;1.43;0.80;;;27.80;65.50;;;;;;5004308;28;20464;-79
2021/07/21 11:32:06;;;;;;;1.47;0.80;;;28.30;65.50;;;;;;4990560;28;20482;-80
2021/07/21 11:34:35;;;;;;;1.50;0.83;;;28.60;65.70;;;;;;5006107;28;20837;-78
2021/07/21 11:37:03;;;;;;;1.47;0.80;;;28.40;64.10;;;;;;5002071;28;20518;-77
2021/07/21 11:39:50;;;;;;;1.50;0.80;;;28.30;63.90;;;;;;5012467;28;20566;-77
2021/07/21 11:42:34;;;;;;;1.43;0.80;;;28.30;65.60;;;;;;4999785;28;21136;-77
2021/07/21 11:45:20;;;;;;;1.43;0.80;;;28.30;64.10;;;;;;4995340;28;20533;-77
2021/07/21 11:47:52;;;;;;;1.50;0.93;;;28.50;65.40;;;;;;5008429;28;21892;-79
2021/07/21 11:50:22;;;;;;;1.50;0.80;;;28.70;64.80;;;;;;5008069;28;20501;-80
2021/07/21 11:52:51;;;;;;;1.43;0.80;;;28.70;65.40;;;;;;5002710;28;21304;-78
2021/07/21 11:55:18;;;;;;;1.43;0.80;;;28.70;65.60;;;;;;5012486;28;20478;-78
2021/07/21 11:57:48;;;;;;;1.50;0.80;;;28.70;65.30;;;;;;4992887;28;21050;-79
2021/07/21 12:00:17;;;;;;;1.40;0.80;;;28.80;65.20;;;;;;4997376;28;20487;-80
2021/07/21 12:02:44;;;;;;;1.40;0.80;;;28.80;64.90;;;;;;5001619;28;20490;-78
2021/07/21 12:05:11;;;;;;;1.50;0.90;;;28.70;64.00;;;;;;5002311;28;20471;-79
2021/07/21 12:07:39;;;;;;;1.50;0.80;;;28.20;64.90;;;;;;4996218;28;20928;-79
2021/07/21 12:10:12;;;;;;;1.47;0.80;;;27.80;64.50;;;;;;4991726;28;20464;-79
2021/07/21 12:12:55;;;;;;;1.50;0.80;;;27.50;65.90;;;;;;4991453;28;20853;-78
2021/07/21 12:15:22;;;;;;;1.47;0.80;;;27.50;66.10;;;;;;4992569;28;20472;-80
2021/07/21 12:17:49;;;;;;;1.47;0.80;;;27.50;65.50;;;;;;4992347;28;20475;-82
2021/07/21 12:20:16;;;;;;;1.40;0.90;;;27.60;65.90;;;;;;5003324;28;20498;-79
2021/07/21 12:22:45;;;;;;;1.50;0.80;;;27.90;68.50;;;;;;5007601;28;20901;-77
2021/07/21 12:25:14;;;;;;;1.43;0.80;;;28.50;66.20;;;;;;5002846;28;20467;-79
2021/07/21 12:27:42;;;;;;;1.47;0.80;;;28.80;64.50;;;;;;5007793;28;20494;-79
2021/07/21 12:30:13;;;;;;;1.47;0.80;;;29.00;64.40;;;;;;5005484;28;20826;-78
2021/07/21 12:32:40;;;;;;;1.43;0.80;;;29.10;64.40;;;;;;4990022;28;20878;-78
2021/07/21 12:35:09;;;;;;;1.47;0.80;;;29.10;63.00;;;;;;5002476;28;20742;-77
2021/07/21 12:37:41;;;;;;;1.50;0.80;;;29.00;64.10;;;;;;4999377;28;20493;-81
2021/07/21 12:40:11;;;;;;;1.40;0.80;;;28.70;63.20;;;;;;5004657;28;20866;-79
2021/07/21 12:42:39;;;;;;;1.47;0.80;;;28.30;63.40;;;;;;5010717;28;20496;-80
2021/07/21 12:45:07;;;;;;;1.50;0.90;;;28.10;65.30;;;;;;5004215;28;20459;-80
2021/07/21 12:47:37;;;;;;;1.87;1.77;;;27.90;64.70;;;;;;4998249;28;20498;-79
2021/07/21 12:50:08;;;;;;;1.50;1.00;;;27.80;65.20;;;;;;5006439;28;20460;-78
2021/07/21 12:52:38;;;;;;;1.50;0.80;;;27.80;65.80;;;;;;4994332;28;20486;-78
2021/07/21 12:55:08;;;;;;;1.50;0.80;;;28.00;66.10;;;;;;5005443;28;20967;-79
2021/07/21 12:57:38;;;;;;;1.47;0.80;;;28.10;65.70;;;;;;5008834;28;20825;-80
2021/07/21 13:00:11;;;;;;;1.50;0.80;;;28.20;65.20;;;;;;4998560;28;20483;-77
2021/07/21 13:02:40;;;;;;;1.60;1.43;;;28.30;65.50;;;;;;4990919;28;20483;-79
2021/07/21 13:05:28;;;;;;;1.47;0.80;;;28.30;65.40;;;;;;5002578;28;20476;-80
2021/07/21 13:07:56;;;;;;;1.40;0.80;;;28.30;65.00;;;;;;4984561;28;20480;-83
2021/07/21 13:10:23;;;;;;;1.50;1.10;;;28.00;64.90;;;;;;4998468;28;20841;-80
2021/07/21 13:12:51;;;;;;;1.50;1.00;;;27.90;65.90;;;;;;5005561;28;21239;-78
2021/07/21 13:15:31;;;;;;;1.47;0.80;;;28.10;65.50;;;;;;5004321;28;20464;-79
2021/07/21 13:18:06;;;;;;;1.47;0.80;;;28.20;66.40;;;;;;5010237;28;20485;-78
2021/07/21 13:20:36;;;;;;;2.23;1.47;;;28.20;66.40;;;;;;4998753;28;20484;-79
2021/07/21 13:23:11;;;;;;;1.60;1.20;;;28.10;66.20;;;;;;5010033;28;20495;-78
2021/07/21 13:25:38;;;;;;;1.47;0.83;;;27.90;66.30;;;;;;4996772;28;20581;-80